sensor_id;sensor_type;location;lat;lon;timestamp;pressure;altitude;pressure_sealevel;temperature;humidity
13407;BME280;6774;48.208;10.766;2023-12-07T00:00:20;95802.09;;;0.97;86.35
13407;BME280;6774;48.208;10.766;2023-12-07T00:02:47;95801.03;;;0.99;87.64
13407;BME280;6774;48.208;10.766;2023-12-07T00:05:15;95797.34;;;1.13;86.82
13407;BME280;6774;48.208;10.766;2023-12-07T00:07:43;95802.78;;;1.10;87.91
13407;BME280;6774;48.208;10.766;2023-12-07T00:10:12;95806.34;;;0.98;88.55
13407;BME280;6774;48.208;10.766;2023-12-07T00:12:41;95804.78;;;1.06;87.29
13407;BME280;6774;48.208;10.766;2023-12-07T00:15:09;95801.66;;;0.92;86.89
13407;BME280;6774;48.208;10.766;2023-12-07T00:17:37;95805.91;;;0.70;86.21
13407;BME280;6774;48.208;10.766;2023-12-07T00:20:06;95801.56;;;0.60;86.41
13407;BME280;6774;48.208;10.766;2023-12-07T00:22:34;95805.00;;;0.38;85.76
13407;BME280;6774;48.208;10.766;2023-12-07T00:25:02;95814.09;;;0.21;85.65
13407;BME280;6774;48.208;10.766;2023-12-07T00:27:32;95819.97;;;0.12;87.06
13407;BME280;6774;48.208;10.766;2023-12-07T00:29:59;95805.91;;;0.03;89.46
13407;BME280;6774;48.208;10.766;2023-12-07T00:32:27;95805.91;;;-0.08;87.12
13407;BME280;6774;48.208;10.766;2023-12-07T00:34:55;95803.91;;;-0.05;86.77
13407;BME280;6774;48.208;10.766;2023-12-07T00:37:23;95812.59;;;-0.17;87.40
13407;BME280;6774;48.208;10.766;2023-12-07T00:39:50;95820.28;;;-0.04;88.40
13407;BME280;6774;48.208;10.766;2023-12-07T00:42:18;95819.34;;;-0.03;87.50
13407;BME280;6774;48.208;10.766;2023-12-07T00:44:48;95824.44;;;0.10;87.71
13407;BME280;6774;48.208;10.766;2023-12-07T00:47:15;95827.63;;;0.24;87.86
13407;BME280;6774;48.208;10.766;2023-12-07T00:49:43;95823.41;;;0.35;87.97
13407;BME280;6774;48.208;10.766;2023-12-07T00:52:12;95817.84;;;0.62;88.71
13407;BME280;6774;48.208;10.766;2023-12-07T00:54:40;95821.72;;;0.78;87.97
13407;BME280;6774;48.208;10.766;2023-12-07T00:57:08;95823.59;;;0.88;87.87
13407;BME280;6774;48.208;10.766;2023-12-07T00:59:35;95827.63;;;0.92;88.38
13407;BME280;6774;48.208;10.766;2023-12-07T01:02:05;95828.66;;;1.00;88.86
13407;BME280;6774;48.208;10.766;2023-12-07T01:04:33;95836.59;;;0.88;87.85
13407;BME280;6774;48.208;10.766;2023-12-07T01:07:01;95838.25;;;0.21;86.04
13407;BME280;6774;48.208;10.766;2023-12-07T01:09:30;95838.66;;;-0.53;83.97
13407;BME280;6774;48.208;10.766;2023-12-07T01:11:57;95846.41;;;-1.01;84.38
13407;BME280;6774;48.208;10.766;2023-12-07T01:14:25;95851.75;;;-1.16;85.54
13407;BME280;6774;48.208;10.766;2023-12-07T01:16:53;95856.03;;;-1.03;85.45
13407;BME280;6774;48.208;10.766;2023-12-07T01:19:22;95858.16;;;-1.21;85.76
13407;BME280;6774;48.208;10.766;2023-12-07T01:21:51;95853.84;;;-1.33;86.66
13407;BME280;6774;48.208;10.766;2023-12-07T01:24:19;95856.88;;;-1.65;86.01
13407;BME280;6774;48.208;10.766;2023-12-07T01:26:47;95866.72;;;-1.57;85.44
13407;BME280;6774;48.208;10.766;2023-12-07T01:29:15;95874.78;;;-1.49;85.18
13407;BME280;6774;48.208;10.766;2023-12-07T01:31:44;95883.69;;;-1.53;84.50
13407;BME280;6774;48.208;10.766;2023-12-07T01:34:12;95878.31;;;-1.63;86.38
13407;BME280;6774;48.208;10.766;2023-12-07T01:36:41;95881.22;;;-1.55;85.96
13407;BME280;6774;48.208;10.766;2023-12-07T01:39:09;95878.72;;;-1.44;86.80
13407;BME280;6774;48.208;10.766;2023-12-07T01:41:39;95883.47;;;-1.50;87.71
13407;BME280;6774;48.208;10.766;2023-12-07T01:44:07;95883.88;;;-1.31;88.04
13407;BME280;6774;48.208;10.766;2023-12-07T01:46:35;95883.88;;;-1.18;88.08
13407;BME280;6774;48.208;10.766;2023-12-07T01:49:03;95882.28;;;-1.08;88.39
13407;BME280;6774;48.208;10.766;2023-12-07T01:51:31;95889.91;;;-0.94;89.08
13407;BME280;6774;48.208;10.766;2023-12-07T01:54:01;95891.41;;;-0.78;89.19
13407;BME280;6774;48.208;10.766;2023-12-07T01:56:29;95883.69;;;-0.67;88.33
13407;BME280;6774;48.208;10.766;2023-12-07T01:58:57;95884.03;;;-0.48;89.35
13407;BME280;6774;48.208;10.766;2023-12-07T02:01:25;95886.66;;;-0.37;89.32
13407;BME280;6774;48.208;10.766;2023-12-07T02:03:53;95887.09;;;-0.19;88.69
13407;BME280;6774;48.208;10.766;2023-12-07T02:06:21;95893.16;;;-0.07;88.60
13407;BME280;6774;48.208;10.766;2023-12-07T02:08:49;95896.84;;;0.02;88.80
13407;BME280;6774;48.208;10.766;2023-12-07T02:11:18;95896.75;;;0.14;88.79
13407;BME280;6774;48.208;10.766;2023-12-07T02:13:46;95883.56;;;0.28;89.27
13407;BME280;6774;48.208;10.766;2023-12-07T02:16:17;95888.53;;;0.43;88.07
13407;BME280;6774;48.208;10.766;2023-12-07T02:18:53;95891.97;;;0.43;87.87
13407;BME280;6774;48.208;10.766;2023-12-07T02:21:30;95891.63;;;0.37;89.09
13407;BME280;6774;48.208;10.766;2023-12-07T02:24:02;95898.66;;;0.35;89.15
13407;BME280;6774;48.208;10.766;2023-12-07T02:26:34;95902.09;;;0.35;87.65
13407;BME280;6774;48.208;10.766;2023-12-07T02:29:03;95902.31;;;0.21;87.14
13407;BME280;6774;48.208;10.766;2023-12-07T02:31:31;95901.25;;;0.23;87.27
13407;BME280;6774;48.208;10.766;2023-12-07T02:34:00;95906.88;;;0.17;88.31
13407;BME280;6774;48.208;10.766;2023-12-07T02:36:29;95897.13;;;0.21;88.51
13407;BME280;6774;48.208;10.766;2023-12-07T02:39:00;95896.97;;;0.11;87.45
13407;BME280;6774;48.208;10.766;2023-12-07T02:41:30;95895.00;;;-0.09;87.28
13407;BME280;6774;48.208;10.766;2023-12-07T02:44:00;95897.66;;;0.02;87.77
13407;BME280;6774;48.208;10.766;2023-12-07T02:46:29;95899.91;;;0.07;87.44
13407;BME280;6774;48.208;10.766;2023-12-07T02:48:57;95904.78;;;0.22;87.53
13407;BME280;6774;48.208;10.766;2023-12-07T02:51:24;95902.22;;;0.34;87.75
13407;BME280;6774;48.208;10.766;2023-12-07T02:53:52;95899.41;;;0.48;87.21
13407;BME280;6774;48.208;10.766;2023-12-07T02:56:20;95900.69;;;0.53;86.70
13407;BME280;6774;48.208;10.766;2023-12-07T02:58:48;95897.28;;;0.53;86.40
13407;BME280;6774;48.208;10.766;2023-12-07T03:01:17;95909.09;;;0.46;87.11
13407;BME280;6774;48.208;10.766;2023-12-07T03:03:45;95900.56;;;0.33;86.79
13407;BME280;6774;48.208;10.766;2023-12-07T03:06:13;95904.47;;;0.38;86.77
13407;BME280;6774;48.208;10.766;2023-12-07T03:08:42;95895.59;;;0.30;87.71
13407;BME280;6774;48.208;10.766;2023-12-07T03:11:09;95901.50;;;0.20;87.03
13407;BME280;6774;48.208;10.766;2023-12-07T03:13:37;95901.00;;;0.15;87.55
13407;BME280;6774;48.208;10.766;2023-12-07T03:16:07;95897.94;;;0.21;88.29
13407;BME280;6774;48.208;10.766;2023-12-07T03:18:37;95900.31;;;0.36;88.25
13407;BME280;6774;48.208;10.766;2023-12-07T03:21:05;95901.06;;;0.38;87.74
13407;BME280;6774;48.208;10.766;2023-12-07T03:23:33;95897.84;;;0.34;87.71
13407;BME280;6774;48.208;10.766;2023-12-07T03:26:00;95908.59;;;0.30;87.55
13407;BME280;6774;48.208;10.766;2023-12-07T03:28:28;95904.53;;;0.25;87.39
13407;BME280;6774;48.208;10.766;2023-12-07T03:30:56;95904.41;;;0.16;86.59
13407;BME280;6774;48.208;10.766;2023-12-07T03:33:24;95908.56;;;0.18;86.50
13407;BME280;6774;48.208;10.766;2023-12-07T03:35:53;95915.53;;;0.29;86.41
13407;BME280;6774;48.208;10.766;2023-12-07T03:38:21;95916.38;;;0.30;87.11
13407;BME280;6774;48.208;10.766;2023-12-07T03:40:49;95908.59;;;0.30;86.73
13407;BME280;6774;48.208;10.766;2023-12-07T03:43:19;95915.91;;;0.36;87.40
13407;BME280;6774;48.208;10.766;2023-12-07T03:45:47;95917.78;;;0.34;86.27
13407;BME280;6774;48.208;10.766;2023-12-07T03:48:15;95918.16;;;0.29;86.42
13407;BME280;6774;48.208;10.766;2023-12-07T03:50:43;95915.91;;;0.36;86.95
13407;BME280;6774;48.208;10.766;2023-12-07T03:53:12;95921.31;;;0.33;86.81
13407;BME280;6774;48.208;10.766;2023-12-07T03:55:41;95921.31;;;0.33;86.36
13407;BME280;6774;48.208;10.766;2023-12-07T03:58:08;95931.94;;;0.30;86.33
13407;BME280;6774;48.208;10.766;2023-12-07T04:00:36;95921.78;;;0.26;86.61
13407;BME280;6774;48.208;10.766;2023-12-07T04:03:04;95926.50;;;0.21;85.69
13407;BME280;6774;48.208;10.766;2023-12-07T04:05:33;95928.84;;;0.24;85.76
13407;BME280;6774;48.208;10.766;2023-12-07T04:08:00;95937.81;;;0.20;85.69
13407;BME280;6774;48.208;10.766;2023-12-07T04:10:30;95922.50;;;0.28;85.84
13407;BME280;6774;48.208;10.766;2023-12-07T04:12:58;95921.31;;;0.33;86.11
13407;BME280;6774;48.208;10.766;2023-12-07T04:15:25;95923.91;;;0.33;84.89
13407;BME280;6774;48.208;10.766;2023-12-07T04:17:53;95931.56;;;0.23;85.36
13407;BME280;6774;48.208;10.766;2023-12-07T04:20:21;95935.47;;;0.28;85.77
13407;BME280;6774;48.208;10.766;2023-12-07T04:22:49;95940.19;;;0.23;85.56
13407;BME280;6774;48.208;10.766;2023-12-07T04:25:17;95935.47;;;0.28;84.88
13407;BME280;6774;48.208;10.766;2023-12-07T04:27:46;95932.38;;;0.23;85.20
13407;BME280;6774;48.208;10.766;2023-12-07T04:30:14;95939.91;;;0.15;85.69
13407;BME280;6774;48.208;10.766;2023-12-07T04:32:42;95937.88;;;0.08;85.72
13407;BME280;6774;48.208;10.766;2023-12-07T04:35:10;95937.28;;;0.04;86.44
13407;BME280;6774;48.208;10.766;2023-12-07T04:37:37;95933.63;;;0.07;85.98
13407;BME280;6774;48.208;10.766;2023-12-07T04:40:07;95938.13;;;0.05;86.18
13407;BME280;6774;48.208;10.766;2023-12-07T04:42:35;95935.41;;;0.06;86.48
13407;BME280;6774;48.208;10.766;2023-12-07T04:45:05;95930.56;;;0.02;86.15
13407;BME280;6774;48.208;10.766;2023-12-07T04:47:33;95933.84;;;-0.08;86.43
13407;BME280;6774;48.208;10.766;2023-12-07T04:50:01;95930.69;;;0.00;86.57
13407;BME280;6774;48.208;10.766;2023-12-07T04:52:29;95936.59;;;0.02;85.85
13407;BME280;6774;48.208;10.766;2023-12-07T04:54:57;95945.03;;;-0.07;86.67
13407;BME280;6774;48.208;10.766;2023-12-07T04:57:25;95936.03;;;-0.14;86.07
13407;BME280;6774;48.208;10.766;2023-12-07T04:59:52;95932.06;;;-0.07;86.30
13407;BME280;6774;48.208;10.766;2023-12-07T05:02:22;95935.09;;;-0.13;86.43
13407;BME280;6774;48.208;10.766;2023-12-07T05:04:50;95936.88;;;-0.14;86.08
13407;BME280;6774;48.208;10.766;2023-12-07T05:07:18;95936.09;;;-0.51;84.00
13407;BME280;6774;48.208;10.766;2023-12-07T05:09:45;95941.22;;;-0.62;84.24
13407;BME280;6774;48.208;10.766;2023-12-07T05:12:13;95939.19;;;-0.82;84.18
13407;BME280;6774;48.208;10.766;2023-12-07T05:14:41;95935.16;;;-0.87;84.79
13407;BME280;6774;48.208;10.766;2023-12-07T05:17:09;95943.16;;;-1.02;84.38
13407;BME280;6774;48.208;10.766;2023-12-07T05:19:38;95943.28;;;-1.04;85.10
13407;BME280;6774;48.208;10.766;2023-12-07T05:22:06;95939.75;;;-1.03;85.23
13407;BME280;6774;48.208;10.766;2023-12-07T05:24:34;95944.44;;;-1.08;84.94
13407;BME280;6774;48.208;10.766;2023-12-07T05:27:03;95940.41;;;-1.25;84.40
13407;BME280;6774;48.208;10.766;2023-12-07T05:29:31;95945.47;;;-1.49;83.76
13407;BME280;6774;48.208;10.766;2023-12-07T05:31:59;95935.66;;;-1.82;83.14
13407;BME280;6774;48.208;10.766;2023-12-07T05:34:26;95943.25;;;-2.06;82.27
13407;BME280;6774;48.208;10.766;2023-12-07T05:36:56;95943.94;;;-2.56;81.12
13407;BME280;6774;48.208;10.766;2023-12-07T05:39:23;95949.22;;;-2.72;80.10
13407;BME280;6774;48.208;10.766;2023-12-07T05:41:52;95948.63;;;-3.04;79.88
13407;BME280;6774;48.208;10.766;2023-12-07T05:44:20;95951.66;;;-3.40;80.38
13407;BME280;6774;48.208;10.766;2023-12-07T05:46:49;95952.13;;;-3.62;80.95
13407;BME280;6774;48.208;10.766;2023-12-07T05:49:17;95950.53;;;-3.79;80.43
13407;BME280;6774;48.208;10.766;2023-12-07T05:51:45;95953.69;;;-3.74;80.41
13407;BME280;6774;48.208;10.766;2023-12-07T05:54:14;95959.38;;;-3.83;80.78
13407;BME280;6774;48.208;10.766;2023-12-07T05:56:41;95953.16;;;-3.94;81.13
13407;BME280;6774;48.208;10.766;2023-12-07T05:59:09;95958.34;;;-4.24;80.83
13407;BME280;6774;48.208;10.766;2023-12-07T06:01:37;95957.25;;;-4.20;80.74
13407;BME280;6774;48.208;10.766;2023-12-07T06:04:07;95960.47;;;-4.17;81.67
13407;BME280;6774;48.208;10.766;2023-12-07T06:06:35;95957.00;;;-4.32;81.74
13407;BME280;6774;48.208;10.766;2023-12-07T06:09:03;95963.66;;;-4.27;81.74
13407;BME280;6774;48.208;10.766;2023-12-07T06:11:33;95953.88;;;-4.37;80.44
13407;BME280;6774;48.208;10.766;2023-12-07T06:14:01;95949.47;;;-4.35;80.72
13407;BME280;6774;48.208;10.766;2023-12-07T06:16:32;95948.03;;;-4.24;81.48
13407;BME280;6774;48.208;10.766;2023-12-07T06:19:00;95953.31;;;-4.12;82.56
13407;BME280;6774;48.208;10.766;2023-12-07T06:21:29;95956.22;;;-4.48;82.42
13407;BME280;6774;48.208;10.766;2023-12-07T06:23:57;95956.38;;;-4.35;81.68
13407;BME280;6774;48.208;10.766;2023-12-07T06:26:26;95963.34;;;-4.37;80.49
13407;BME280;6774;48.208;10.766;2023-12-07T06:28:55;95967.88;;;-4.72;80.41
13407;BME280;6774;48.208;10.766;2023-12-07T06:31:23;95965.81;;;-4.81;79.67
13407;BME280;6774;48.208;10.766;2023-12-07T06:33:51;95968.88;;;-4.91;82.26
13407;BME280;6774;48.208;10.766;2023-12-07T06:36:19;95965.03;;;-4.99;84.34
13407;BME280;6774;48.208;10.766;2023-12-07T06:38:48;95968.69;;;-4.72;84.83
13407;BME280;6774;48.208;10.766;2023-12-07T06:41:16;95967.19;;;-4.60;84.02
13407;BME280;6774;48.208;10.766;2023-12-07T06:43:44;95971.69;;;-4.48;84.05
13407;BME280;6774;48.208;10.766;2023-12-07T06:46:14;95967.69;;;-4.53;84.77
13407;BME280;6774;48.208;10.766;2023-12-07T06:48:43;95970.34;;;-4.55;83.74
13407;BME280;6774;48.208;10.766;2023-12-07T06:51:11;95976.66;;;-4.76;81.88
13407;BME280;6774;48.208;10.766;2023-12-07T06:53:41;95979.00;;;-4.88;82.18
13407;BME280;6774;48.208;10.766;2023-12-07T06:56:09;95977.00;;;-4.82;82.02
13407;BME280;6774;48.208;10.766;2023-12-07T06:58:37;95978.44;;;-4.93;81.54
13407;BME280;6774;48.208;10.766;2023-12-07T07:01:04;95977.81;;;-4.98;82.22
13407;BME280;6774;48.208;10.766;2023-12-07T07:03:34;95977.09;;;-4.84;83.10
13407;BME280;6774;48.208;10.766;2023-12-07T07:06:03;95988.47;;;-4.88;83.91
13407;BME280;6774;48.208;10.766;2023-12-07T07:08:31;95997.25;;;-4.76;84.04
13407;BME280;6774;48.208;10.766;2023-12-07T07:10:59;95987.22;;;-4.65;82.95
13407;BME280;6774;48.208;10.766;2023-12-07T07:13:26;95985.97;;;-4.58;82.94
13407;BME280;6774;48.208;10.766;2023-12-07T07:15:54;95983.47;;;-4.60;82.75
13407;BME280;6774;48.208;10.766;2023-12-07T07:18:22;95980.81;;;-4.58;82.20
13407;BME280;6774;48.208;10.766;2023-12-07T07:20:53;95986.63;;;-4.70;79.30
13407;BME280;6774;48.208;10.766;2023-12-07T07:23:20;95983.38;;;-4.58;79.93
13407;BME280;6774;48.208;10.766;2023-12-07T07:25:48;95978.31;;;-4.44;81.13
13407;BME280;6774;48.208;10.766;2023-12-07T07:28:16;95977.66;;;-4.47;80.39
13407;BME280;6774;48.208;10.766;2023-12-07T07:30:44;95974.13;;;-4.31;80.51
13407;BME280;6774;48.208;10.766;2023-12-07T07:33:12;95986.75;;;-4.10;81.05
13407;BME280;6774;48.208;10.766;2023-12-07T07:35:40;95980.69;;;-3.95;81.83
13407;BME280;6774;48.208;10.766;2023-12-07T07:38:09;95976.50;;;-3.82;81.65
13407;BME280;6774;48.208;10.766;2023-12-07T07:40:37;95989.41;;;-3.67;81.21
13407;BME280;6774;48.208;10.766;2023-12-07T07:43:04;95985.38;;;-3.57;81.26
13407;BME280;6774;48.208;10.766;2023-12-07T07:45:32;95983.38;;;-3.52;80.01
13407;BME280;6774;48.208;10.766;2023-12-07T07:48:01;95982.81;;;-3.43;79.63
13407;BME280;6774;48.208;10.766;2023-12-07T07:50:29;95975.56;;;-3.36;79.91
13407;BME280;6774;48.208;10.766;2023-12-07T07:52:57;95980.53;;;-3.19;80.11
13407;BME280;6774;48.208;10.766;2023-12-07T07:55:26;95973.25;;;-2.98;80.72
13407;BME280;6774;48.208;10.766;2023-12-07T07:57:54;95971.59;;;-2.99;79.57
13407;BME280;6774;48.208;10.766;2023-12-07T08:00:22;95977.84;;;-2.89;78.74
13407;BME280;6774;48.208;10.766;2023-12-07T08:02:52;95970.97;;;-2.76;78.75
13407;BME280;6774;48.208;10.766;2023-12-07T08:05:20;95970.97;;;-2.62;78.35
13407;BME280;6774;48.208;10.766;2023-12-07T08:07:48;95970.53;;;-2.41;79.05
13407;BME280;6774;48.208;10.766;2023-12-07T08:10:16;95964.72;;;-2.18;79.45
13407;BME280;6774;48.208;10.766;2023-12-07T08:12:45;95973.78;;;-1.98;79.33
13407;BME280;6774;48.208;10.766;2023-12-07T08:15:13;95966.25;;;-1.88;79.33
13407;BME280;6774;48.208;10.766;2023-12-07T08:17:41;95968.22;;;-1.92;75.99
13407;BME280;6774;48.208;10.766;2023-12-07T08:20:09;95977.63;;;-1.91;76.23
13407;BME280;6774;48.208;10.766;2023-12-07T08:22:38;95968.94;;;-1.77;76.81
13407;BME280;6774;48.208;10.766;2023-12-07T08:25:08;95967.34;;;-1.53;77.23
13407;BME280;6774;48.208;10.766;2023-12-07T08:27:38;95970.66;;;-1.25;77.99
13407;BME280;6774;48.208;10.766;2023-12-07T08:30:08;95965.34;;;-0.98;77.72
13407;BME280;6774;48.208;10.766;2023-12-07T08:32:36;95956.38;;;-0.69;78.61
13407;BME280;6774;48.208;10.766;2023-12-07T08:35:06;95956.47;;;0.25;79.98
13407;BME280;6774;48.208;10.766;2023-12-07T08:37:37;95945.38;;;2.33;74.81
13407;BME280;6774;48.208;10.766;2023-12-07T08:40:06;95942.06;;;4.42;68.01
13407;BME280;6774;48.208;10.766;2023-12-07T08:42:34;95939.44;;;5.90;62.72
13407;BME280;6774;48.208;10.766;2023-12-07T08:45:02;95942.53;;;7.09;58.66
13407;BME280;6774;48.208;10.766;2023-12-07T08:47:31;95938.47;;;7.99;55.41
13407;BME280;6774;48.208;10.766;2023-12-07T08:49:59;95939.22;;;8.50;52.90
13407;BME280;6774;48.208;10.766;2023-12-07T08:52:27;95936.41;;;8.84;50.99
13407;BME280;6774;48.208;10.766;2023-12-07T08:55:10;95931.19;;;9.39;50.62
13407;BME280;6774;48.208;10.766;2023-12-07T08:57:38;95930.84;;;9.90;49.84
13407;BME280;6774;48.208;10.766;2023-12-07T09:00:07;95923.41;;;10.47;49.07
13407;BME280;6774;48.208;10.766;2023-12-07T09:02:36;95923.25;;;11.01;48.01
13407;BME280;6774;48.208;10.766;2023-12-07T09:05:13;95920.09;;;11.65;47.63
13407;BME280;6774;48.208;10.766;2023-12-07T09:07:41;95911.63;;;12.20;46.64
13407;BME280;6774;48.208;10.766;2023-12-07T09:10:10;95915.53;;;12.46;45.86
13407;BME280;6774;48.208;10.766;2023-12-07T09:12:38;95912.00;;;12.81;44.93
13407;BME280;6774;48.208;10.766;2023-12-07T09:15:07;95923.22;;;12.41;45.16
13407;BME280;6774;48.208;10.766;2023-12-07T09:17:39;95926.63;;;10.58;46.47
13407;BME280;6774;48.208;10.766;2023-12-07T09:20:08;95930.50;;;8.98;48.81
13407;BME280;6774;48.208;10.766;2023-12-07T09:22:40;95925.56;;;8.87;50.43
13407;BME280;6774;48.208;10.766;2023-12-07T09:25:08;95924.97;;;10.03;49.52
13407;BME280;6774;48.208;10.766;2023-12-07T09:27:36;95929.25;;;10.95;47.94
13407;BME280;6774;48.208;10.766;2023-12-07T09:30:05;95922.53;;;11.96;46.41
13407;BME280;6774;48.208;10.766;2023-12-07T09:32:33;95918.78;;;12.69;45.05
13407;BME280;6774;48.208;10.766;2023-12-07T09:35:07;95919.81;;;13.46;45.15
13407;BME280;6774;48.208;10.766;2023-12-07T09:37:41;95913.81;;;14.19;44.42
13407;BME280;6774;48.208;10.766;2023-12-07T09:40:14;95908.00;;;15.03;43.76
13407;BME280;6774;48.208;10.766;2023-12-07T09:42:42;95908.78;;;15.37;42.31
13407;BME280;6774;48.208;10.766;2023-12-07T09:45:11;95909.09;;;15.87;42.13
13407;BME280;6774;48.208;10.766;2023-12-07T09:47:39;95905.22;;;16.28;41.03
13407;BME280;6774;48.208;10.766;2023-12-07T09:50:09;95900.63;;;16.73;40.26
13407;BME280;6774;48.208;10.766;2023-12-07T09:52:38;95896.53;;;17.02;39.31
13407;BME280;6774;48.208;10.766;2023-12-07T09:55:16;95903.00;;;17.13;39.00
13407;BME280;6774;48.208;10.766;2023-12-07T09:57:45;95896.66;;;17.32;38.60
13407;BME280;6774;48.208;10.766;2023-12-07T10:00:13;95899.59;;;17.49;38.24
13407;BME280;6774;48.208;10.766;2023-12-07T10:02:42;95896.50;;;17.88;38.27
13407;BME280;6774;48.208;10.766;2023-12-07T10:05:13;95887.28;;;18.21;37.99
13407;BME280;6774;48.208;10.766;2023-12-07T10:07:43;95888.41;;;18.43;37.00
13407;BME280;6774;48.208;10.766;2023-12-07T10:10:14;95881.69;;;18.53;36.88
13407;BME280;6774;48.208;10.766;2023-12-07T10:12:46;95874.75;;;18.33;36.67
13407;BME280;6774;48.208;10.766;2023-12-07T10:15:15;95871.88;;;18.46;36.88
13407;BME280;6774;48.208;10.766;2023-12-07T10:17:45;95872.56;;;18.72;36.65
13407;BME280;6774;48.208;10.766;2023-12-07T10:20:17;95865.41;;;19.08;36.31
13407;BME280;6774;48.208;10.766;2023-12-07T10:22:45;95873.22;;;19.44;36.27
13407;BME280;6774;48.208;10.766;2023-12-07T10:25:14;95860.75;;;19.73;35.40
13407;BME280;6774;48.208;10.766;2023-12-07T10:27:42;95856.34;;;20.07;35.00
13407;BME280;6774;48.208;10.766;2023-12-07T10:30:10;95847.72;;;20.34;35.14
13407;BME280;6774;48.208;10.766;2023-12-07T10:32:39;95851.28;;;20.51;35.12
13407;BME280;6774;48.208;10.766;2023-12-07T10:35:08;95834.50;;;20.72;34.54
13407;BME280;6774;48.208;10.766;2023-12-07T10:37:38;95834.75;;;21.05;34.77
13407;BME280;6774;48.208;10.766;2023-12-07T10:40:06;95835.31;;;21.07;34.79
13407;BME280;6774;48.208;10.766;2023-12-07T10:42:36;95829.63;;;21.03;34.85
13407;BME280;6774;48.208;10.766;2023-12-07T10:45:06;95832.59;;;21.23;34.30
13407;BME280;6774;48.208;10.766;2023-12-07T10:47:36;95820.69;;;21.53;33.99
13407;BME280;6774;48.208;10.766;2023-12-07T10:50:06;95817.94;;;21.92;33.72
13407;BME280;6774;48.208;10.766;2023-12-07T10:52:47;95817.81;;;22.25;33.29
13407;BME280;6774;48.208;10.766;2023-12-07T10:55:17;95798.38;;;22.18;33.45
13407;BME280;6774;48.208;10.766;2023-12-07T10:57:47;95804.53;;;22.13;33.05
13407;BME280;6774;48.208;10.766;2023-12-07T11:00:16;95801.44;;;22.05;32.96
13407;BME280;6774;48.208;10.766;2023-12-07T11:02:59;95800.53;;;22.21;32.99
13407;BME280;6774;48.208;10.766;2023-12-07T11:05:28;95802.88;;;22.39;32.57
13407;BME280;6774;48.208;10.766;2023-12-07T11:08:02;95790.59;;;22.49;32.90
13407;BME280;6774;48.208;10.766;2023-12-07T11:10:36;95786.34;;;22.53;31.61
13407;BME280;6774;48.208;10.766;2023-12-07T11:13:13;95786.94;;;22.60;31.20
13407;BME280;6774;48.208;10.766;2023-12-07T11:15:45;95777.66;;;22.78;31.67
13407;BME280;6774;48.208;10.766;2023-12-07T11:18:13;95777.78;;;23.35;31.58
13407;BME280;6774;48.208;10.766;2023-12-07T11:20:42;95763.84;;;23.48;31.28
13407;BME280;6774;48.208;10.766;2023-12-07T11:23:15;95759.41;;;23.74;31.05
13407;BME280;6774;48.208;10.766;2023-12-07T11:25:44;95751.28;;;23.64;31.19
13407;BME280;6774;48.208;10.766;2023-12-07T11:28:12;95758.25;;;23.08;31.66
13407;BME280;6774;48.208;10.766;2023-12-07T11:30:42;95754.06;;;22.53;31.86
13407;BME280;6774;48.208;10.766;2023-12-07T11:33:11;95751.00;;;22.12;32.83
13407;BME280;6774;48.208;10.766;2023-12-07T11:36:04;95743.84;;;21.74;32.80
13407;BME280;6774;48.208;10.766;2023-12-07T11:38:35;95745.00;;;20.79;32.69
13407;BME280;6774;48.208;10.766;2023-12-07T11:41:04;95753.88;;;20.00;33.52
13407;BME280;6774;48.208;10.766;2023-12-07T11:43:41;95755.97;;;19.18;34.12
13407;BME280;6774;48.208;10.766;2023-12-07T11:46:13;95756.81;;;18.18;35.61
13407;BME280;6774;48.208;10.766;2023-12-07T11:48:48;95750.22;;;17.60;36.58
13407;BME280;6774;48.208;10.766;2023-12-07T11:51:17;95754.31;;;17.26;36.95
13407;BME280;6774;48.208;10.766;2023-12-07T11:53:46;95754.31;;;17.08;36.98
13407;BME280;6774;48.208;10.766;2023-12-07T11:56:17;95748.88;;;17.03;37.63
13407;BME280;6774;48.208;10.766;2023-12-07T11:58:48;95757.00;;;17.26;37.47
13407;BME280;6774;48.208;10.766;2023-12-07T12:01:17;95755.84;;;17.71;37.76
13407;BME280;6774;48.208;10.766;2023-12-07T12:03:45;95766.97;;;17.86;37.23
13407;BME280;6774;48.208;10.766;2023-12-07T12:06:12;95753.34;;;17.57;37.69
13407;BME280;6774;48.208;10.766;2023-12-07T12:08:40;95750.56;;;17.64;37.71
13407;BME280;6774;48.208;10.766;2023-12-07T12:11:10;95739.31;;;17.80;36.78
13407;BME280;6774;48.208;10.766;2023-12-07T12:13:38;95736.22;;;17.65;36.51
13407;BME280;6774;48.208;10.766;2023-12-07T12:16:07;95732.09;;;17.32;36.82
13407;BME280;6774;48.208;10.766;2023-12-07T12:18:36;95710.88;;;16.46;37.73
13407;BME280;6774;48.208;10.766;2023-12-07T12:21:07;95716.59;;;15.17;39.66
13407;BME280;6774;48.208;10.766;2023-12-07T12:23:35;95710.16;;;14.79;40.07
13407;BME280;6774;48.208;10.766;2023-12-07T12:26:03;95718.28;;;15.04;39.67
13407;BME280;6774;48.208;10.766;2023-12-07T12:28:33;95718.97;;;15.31;39.57
13407;BME280;6774;48.208;10.766;2023-12-07T12:31:04;95720.50;;;15.14;39.50
13407;BME280;6774;48.208;10.766;2023-12-07T12:33:36;95724.50;;;14.72;39.75
13407;BME280;6774;48.208;10.766;2023-12-07T12:36:05;95714.28;;;13.63;41.23
13407;BME280;6774;48.208;10.766;2023-12-07T12:38:34;95706.97;;;12.63;42.91
13407;BME280;6774;48.208;10.766;2023-12-07T12:41:09;95711.19;;;11.58;44.36
13407;BME280;6774;48.208;10.766;2023-12-07T12:43:39;95706.59;;;10.88;45.80
13407;BME280;6774;48.208;10.766;2023-12-07T12:46:07;95708.59;;;10.27;46.94
13407;BME280;6774;48.208;10.766;2023-12-07T12:48:34;95716.25;;;9.76;47.85
13407;BME280;6774;48.208;10.766;2023-12-07T12:51:10;95715.56;;;9.36;48.88
13407;BME280;6774;48.208;10.766;2023-12-07T12:53:41;95706.88;;;9.05;49.41
13407;BME280;6774;48.208;10.766;2023-12-07T12:56:12;95705.22;;;8.73;50.05
13407;BME280;6774;48.208;10.766;2023-12-07T12:58:41;95695.34;;;8.36;50.98
13407;BME280;6774;48.208;10.766;2023-12-07T13:01:09;95685.00;;;8.18;51.38
13407;BME280;6774;48.208;10.766;2023-12-07T13:03:37;95684.19;;;8.09;51.25
13407;BME280;6774;48.208;10.766;2023-12-07T13:06:05;95672.06;;;8.08;51.78
13407;BME280;6774;48.208;10.766;2023-12-07T13:08:33;95671.44;;;8.53;50.62
13407;BME280;6774;48.208;10.766;2023-12-07T13:11:01;95676.59;;;9.09;49.23
13407;BME280;6774;48.208;10.766;2023-12-07T13:13:29;95668.69;;;9.32;48.49